Time;durP1;ratioP1;P1;durP2;ratioP2;P2;SDS_P1;SDS_P2;PMS_P1;PMS_P2;Temp;Humidity;BMP_temperature;BMP_pressure;BME280_temperature;BME280_humidity;BME280_pressure;Samples;Min_cycle;Max_cycle;Signal;HPM_P1;HPM_P2
2023/03/16 00:01:14;;;;;;;;;;;;;;;5.63;38.98;100410.34;5345245;32;35357;-79
2023/03/16 00:04:16;;;;;;;;;;;;;;;5.54;39.13;100417.44;5378178;32;36027;-79
2023/03/16 00:07:18;;;;;;;;;;;;;;;5.70;39.51;100426.72;5361283;32;37114;-75
2023/03/16 00:10:25;;;;;;;;;;;;;;;5.54;39.74;100422.66;5375018;32;34749;-67
2023/03/16 00:13:28;;;;;;;;;;;;;;;5.01;41.12;100425.28;5373785;32;35509;-80
2023/03/16 00:16:30;;;;;;;;;;;;;;;5.03;41.26;100433.13;5348611;32;35935;-80
2023/03/16 00:19:34;;;;;;;;;;;;;;;5.00;41.20;100425.31;5386762;32;36178;-66
2023/03/16 00:22:35;;;;;;;;;;;;;;;5.25;41.02;100442.28;5359955;32;35357;-66
2023/03/16 00:25:37;;;;;;;;;;;;;;;5.11;41.14;100434.69;5384434;32;34652;-65
2023/03/16 00:28:41;;;;;;;;;;;;;;;4.76;42.08;100427.41;5364884;32;46993;-79
2023/03/16 00:31:43;;;;;;;;;;;;;;;5.15;41.43;100443.31;5366616;32;35181;-80
2023/03/16 00:34:45;;;;;;;;;;;;;;;4.69;42.54;100448.34;5369989;32;33266;-81
2023/03/16 00:37:47;;;;;;;;;;;;;;;4.89;42.29;100443.72;5328853;32;34699;-67
2023/03/16 00:40:50;;;;;;;;;;;;;;;5.79;40.24;100447.41;5366442;32;35214;-76
2023/03/16 00:43:52;;;;;;;;;;;;;;;4.88;42.17;100453.28;5353203;32;36048;-78
2023/03/16 00:46:54;;;;;;;;;;;;;;;4.76;42.44;100439.56;5364992;32;35446;-80
2023/03/16 00:49:57;;;;;;;;;;;;;;;5.27;41.97;100456.16;5360208;32;36123;-67
2023/03/16 00:52:59;;;;;;;;;;;;;;;4.65;42.67;100455.38;5346877;32;35418;-80
2023/03/16 00:56:04;;;;;;;;;;;;;;;4.68;43.19;100438.81;5366571;32;35917;-80
2023/03/16 00:59:07;;;;;;;;;;;;;;;4.95;42.66;100466.22;5353341;32;35312;-67
2023/03/16 01:02:09;;;;;;;;;;;;;;;4.45;43.48;100470.38;5365673;32;43563;-67
2023/03/16 01:05:12;;;;;;;;;;;;;;;4.77;42.91;100465.59;5351963;32;34853;-66
2023/03/16 01:08:14;;;;;;;;;;;;;;;4.65;43.33;100470.97;5386029;32;36526;-66
2023/03/16 01:11:17;;;;;;;;;;;;;;;5.26;41.70;100458.78;5377490;32;35492;-67
2023/03/16 01:14:19;;;;;;;;;;;;;;;5.24;41.75;100460.56;5373597;32;35369;-67
2023/03/16 01:17:21;;;;;;;;;;;;;;;4.92;42.54;100461.91;5356561;32;35479;-66
2023/03/16 01:20:23;;;;;;;;;;;;;;;4.96;42.43;100463.59;5356305;32;36012;-66
2023/03/16 01:23:25;;;;;;;;;;;;;;;4.53;43.51;100472.00;5371603;32;36258;-80
2023/03/16 01:26:27;;;;;;;;;;;;;;;4.50;43.50;100474.63;5359446;32;35059;-78
2023/03/16 01:29:30;;;;;;;;;;;;;;;4.63;43.42;100465.78;5360845;32;36210;-66
2023/03/16 01:32:33;;;;;;;;;;;;;;;4.89;42.89;100470.66;5353343;32;36853;-81
2023/03/16 01:35:34;;;;;;;;;;;;;;;5.40;41.71;100460.25;5345202;32;35673;-79
2023/03/16 01:38:37;;;;;;;;;;;;;;;5.58;41.20;100473.88;5367870;32;35145;-67
2023/03/16 01:41:40;;;;;;;;;;;;;;;5.31;41.64;100468.25;5354501;32;44479;-78
2023/03/16 01:45:12;;;;;;;;;;;;;;;4.92;42.60;100466.28;5367312;32;36693;-77
2023/03/16 01:48:13;;;;;;;;;;;;;;;4.39;43.44;100475.66;5292901;32;46662;-67
2023/03/16 01:51:24;;;;;;;;;;;;;;;4.33;43.50;100459.25;5366155;32;35994;-74
2023/03/16 01:54:45;;;;;;;;;;;;;;;4.77;42.48;100473.44;5367865;32;35428;-81
2023/03/16 01:57:47;;;;;;;;;;;;;;;4.42;43.56;100483.44;5356519;32;44771;-80
2023/03/16 02:00:49;;;;;;;;;;;;;;;4.08;44.03;100494.22;5374593;32;33758;-81
2023/03/16 02:03:54;;;;;;;;;;;;;;;4.50;43.47;100492.00;5343685;32;37129;-67
2023/03/16 02:06:56;;;;;;;;;;;;;;;5.05;42.16;100494.72;5334814;32;38215;-80
2023/03/16 02:10:01;;;;;;;;;;;;;;;4.87;42.28;100485.41;5370347;32;36456;-78
2023/03/16 02:13:03;;;;;;;;;;;;;;;4.57;43.21;100509.25;5355848;32;35553;-66
2023/03/16 02:16:05;;;;;;;;;;;;;;;5.36;41.74;100502.94;5370551;32;36166;-66
2023/03/16 02:19:08;;;;;;;;;;;;;;;5.37;41.54;100501.19;5354197;32;35975;-66
2023/03/16 02:22:10;;;;;;;;;;;;;;;4.95;42.46;100507.87;5356511;32;43254;-80
2023/03/16 02:25:12;;;;;;;;;;;;;;;4.70;43.24;100518.66;5368734;32;36236;-80
2023/03/16 02:28:14;;;;;;;;;;;;;;;4.93;42.87;100515.72;5345749;32;34698;-66
2023/03/16 02:31:16;;;;;;;;;;;;;;;4.52;43.63;100526.69;5369713;32;35518;-67
2023/03/16 02:34:19;;;;;;;;;;;;;;;4.84;43.11;100529.75;5358410;32;36097;-76
2023/03/16 02:37:21;;;;;;;;;;;;;;;4.70;43.50;100525.56;5361660;32;35554;-68
2023/03/16 02:40:22;;;;;;;;;;;;;;;4.65;43.66;100528.25;5339400;32;35448;-76
2023/03/16 02:43:26;;;;;;;;;;;;;;;4.98;43.01;100523.47;5358652;32;35547;-65
2023/03/16 02:46:28;;;;;;;;;;;;;;;4.44;44.10;100538.91;5366681;32;35455;-79
2023/03/16 02:49:35;;;;;;;;;;;;;;;4.56;44.08;100549.19;5354369;32;36321;-66
2023/03/16 02:52:37;;;;;;;;;;;;;;;4.88;43.59;100553.97;5367678;32;34560;-81
2023/03/16 02:55:39;;;;;;;;;;;;;;;3.99;45.61;100559.31;5357435;32;46718;-66
2023/03/16 02:58:41;;;;;;;;;;;;;;;4.12;45.70;100558.34;5381454;32;35452;-66
2023/03/16 03:01:43;;;;;;;;;;;;;;;4.33;44.88;100557.28;5371354;32;33984;-65
2023/03/16 03:04:45;;;;;;;;;;;;;;;4.24;44.92;100541.75;5349656;32;34789;-67
2023/03/16 03:07:47;;;;;;;;;;;;;;;4.09;45.40;100568.78;5367907;32;35724;-66
2023/03/16 03:10:49;;;;;;;;;;;;;;;4.50;44.47;100565.72;5373298;32;36197;-79
2023/03/16 03:13:51;;;;;;;;;;;;;;;4.64;44.37;100557.78;5372282;32;37439;-78
2023/03/16 03:16:53;;;;;;;;;;;;;;;4.37;45.36;100581.50;5352569;32;37882;-66
2023/03/16 03:19:56;;;;;;;;;;;;;;;4.59;44.82;100585.59;5361966;32;35357;-67
2023/03/16 03:22:58;;;;;;;;;;;;;;;4.76;44.53;100575.84;5360253;32;35947;-65
2023/03/16 03:26:01;;;;;;;;;;;;;;;3.84;46.66;100593.28;5377183;32;37168;-66
2023/03/16 03:29:03;;;;;;;;;;;;;;;4.09;46.29;100602.59;5360114;32;35618;-80
2023/03/16 03:32:06;;;;;;;;;;;;;;;4.52;45.35;100595.22;5342803;32;34927;-65
2023/03/16 03:35:11;;;;;;;;;;;;;;;4.22;46.28;100599.00;5364028;32;39016;-75
2023/03/16 03:38:13;;;;;;;;;;;;;;;4.33;45.91;100604.09;5350869;32;44660;-79
2023/03/16 03:41:15;;;;;;;;;;;;;;;4.20;46.05;100605.09;5362382;32;34873;-67
2023/03/16 03:44:17;;;;;;;;;;;;;;;4.14;45.94;100597.34;5351145;32;36287;-67
2023/03/16 03:47:19;;;;;;;;;;;;;;;4.15;46.53;100619.87;5367321;32;36281;-67
2023/03/16 03:50:21;;;;;;;;;;;;;;;4.11;46.19;100607.78;5359285;32;35991;-80
2023/03/16 03:53:23;;;;;;;;;;;;;;;4.85;44.73;100609.59;5350910;32;37111;-67
2023/03/16 03:56:25;;;;;;;;;;;;;;;4.14;46.35;100623.37;5365781;32;37904;-75
2023/03/16 03:59:27;;;;;;;;;;;;;;;4.40;46.16;100621.38;5351771;32;35376;-64
2023/03/16 04:02:29;;;;;;;;;;;;;;;4.23;46.55;100620.66;5367432;32;35607;-66
2023/03/16 04:05:31;;;;;;;;;;;;;;;4.56;45.76;100627.28;5342475;32;35383;-65
2023/03/16 04:08:33;;;;;;;;;;;;;;;4.83;44.98;100627.00;5364395;32;34778;-65
2023/03/16 04:11:35;;;;;;;;;;;;;;;4.00;46.41;100610.50;5351720;32;36008;-66
2023/03/16 04:14:37;;;;;;;;;;;;;;;3.98;46.92;100639.09;5350541;32;35193;-78
2023/03/16 04:17:39;;;;;;;;;;;;;;;5.06;44.98;100633.66;5378822;32;44537;-65
2023/03/16 04:20:41;;;;;;;;;;;;;;;4.21;46.62;100640.66;5360009;32;35747;-78
2023/03/16 04:23:43;;;;;;;;;;;;;;;4.69;46.04;100646.22;5372359;32;35319;-67
2023/03/16 04:26:45;;;;;;;;;;;;;;;5.23;44.59;100647.31;5367101;32;37400;-67
2023/03/16 04:29:47;;;;;;;;;;;;;;;4.47;45.69;100627.37;5360371;32;36317;-74
2023/03/16 04:32:49;;;;;;;;;;;;;;;5.42;44.19;100653.16;5369380;32;37282;-78
2023/03/16 04:35:51;;;;;;;;;;;;;;;5.33;44.06;100658.47;5362543;32;36122;-76
2023/03/16 04:38:53;;;;;;;;;;;;;;;5.37;44.28;100654.97;5380053;32;35673;-66
2023/03/16 04:41:55;;;;;;;;;;;;;;;5.74;43.49;100657.91;5338138;32;36147;-67
2023/03/16 04:44:57;;;;;;;;;;;;;;;5.48;43.84;100653.06;5377005;32;35778;-78
2023/03/16 04:47:59;;;;;;;;;;;;;;;6.15;42.55;100654.66;5369603;32;35957;-67
2023/03/16 04:51:02;;;;;;;;;;;;;;;5.75;43.13;100666.59;5371177;32;35359;-65
2023/03/16 04:54:04;;;;;;;;;;;;;;;5.98;42.52;100667.13;5371509;32;36437;-66
2023/03/16 04:57:07;;;;;;;;;;;;;;;6.29;41.73;100670.09;5350100;32;35136;-67
2023/03/16 05:00:17;;;;;;;;;;;;;;;5.63;41.76;100681.53;5355062;32;44740;-79
2023/03/16 05:03:20;;;;;;;;;;;;;;;4.97;43.51;100688.47;5351613;32;35906;-78
2023/03/16 05:06:22;;;;;;;;;;;;;;;4.87;44.09;100685.94;5336445;32;35158;-80
2023/03/16 05:09:24;;;;;;;;;;;;;;;4.15;45.60;100692.72;5344092;32;35168;-65
2023/03/16 05:12:26;;;;;;;;;;;;;;;4.98;44.00;100692.81;5349294;32;35443;-80
2023/03/16 05:15:28;;;;;;;;;;;;;;;4.33;45.12;100700.38;5371975;32;36503;-65
2023/03/16 05:18:32;;;;;;;;;;;;;;;5.02;44.00;100691.88;5355504;32;36650;-66
2023/03/16 05:21:36;;;;;;;;;;;;;;;3.79;46.38;100699.91;5380871;32;36158;-66
2023/03/16 05:24:38;;;;;;;;;;;;;;;4.18;46.09;100703.09;5349985;32;39082;-77
2023/03/16 05:27:47;;;;;;;;;;;;;;;4.79;44.17;100706.00;5362775;32;35994;-65
2023/03/16 05:30:50;;;;;;;;;;;;;;;4.80;44.36;100693.84;5332482;32;35521;-66
2023/03/16 05:33:56;;;;;;;;;;;;;;;5.13;43.54;100700.44;5353235;32;35221;-66
2023/03/16 05:36:58;;;;;;;;;;;;;;;4.65;44.84;100720.06;5355193;32;36228;-70
2023/03/16 05:40:00;;;;;;;;;;;;;;;5.00;43.42;100706.66;5324056;32;35503;-65
2023/03/16 05:43:03;;;;;;;;;;;;;;;5.11;43.48;100697.84;5373742;32;36117;-65
2023/03/16 05:46:05;;;;;;;;;;;;;;;5.39;42.91;100714.00;5363748;32;35507;-66
2023/03/16 05:49:07;;;;;;;;;;;;;;;6.00;41.58;100716.69;5365209;32;35564;-62
2023/03/16 05:52:09;;;;;;;;;;;;;;;5.39;42.09;100716.59;5368740;32;46203;-80
2023/03/16 05:55:11;;;;;;;;;;;;;;;6.61;40.41;100715.69;5344839;32;34776;-79
2023/03/16 05:58:13;;;;;;;;;;;;;;;7.96;37.52;100706.81;5368631;32;35177;-64
2023/03/16 06:01:15;;;;;;;;;;;;;;;7.54;38.42;100712.13;5349954;32;35176;-76
2023/03/16 06:04:17;;;;;;;;;;;;;;;7.37;38.57;100722.06;5354694;32;36385;-79
2023/03/16 06:07:19;;;;;;;;;;;;;;;8.28;36.79;100720.88;5359774;32;36250;-79
2023/03/16 06:10:21;;;;;;;;;;;;;;;8.37;35.88;100731.16;5361618;32;35428;-67
2023/03/16 06:13:23;;;;;;;;;;;;;;;8.80;35.46;100724.84;5342509;32;36237;-80
2023/03/16 06:16:25;;;;;;;;;;;;;;;8.82;35.44;100734.41;5347459;32;35273;-66
2023/03/16 06:19:27;;;;;;;;;;;;;;;8.76;35.09;100737.19;5362713;32;36123;-67
2023/03/16 06:22:29;;;;;;;;;;;;;;;9.97;33.12;100729.31;5348688;32;35294;-79
2023/03/16 06:25:31;;;;;;;;;;;;;;;9.39;33.52;100736.31;5374900;32;33862;-66
2023/03/16 06:28:33;;;;;;;;;;;;;;;9.52;33.18;100734.19;5356344;32;36036;-78
2023/03/16 06:31:35;;;;;;;;;;;;;;;9.26;33.77;100757.69;5345156;32;35116;-67
2023/03/16 06:34:37;;;;;;;;;;;;;;;9.22;34.38;100746.44;5349261;32;36053;-78
2023/03/16 06:37:39;;;;;;;;;;;;;;;9.80;33.10;100760.50;5330511;32;43922;-79
2023/03/16 06:40:41;;;;;;;;;;;;;;;10.23;32.34;100760.03;5358836;32;35337;-67
2023/03/16 06:43:43;;;;;;;;;;;;;;;9.29;33.14;100760.22;5340008;32;34941;-66
2023/03/16 06:46:45;;;;;;;;;;;;;;;9.74;32.54;100774.66;5350173;32;35356;-76
2023/03/16 06:49:49;;;;;;;;;;;;;;;9.87;32.61;100766.41;5343761;32;35000;-75
2023/03/16 06:52:52;;;;;;;;;;;;;;;10.67;31.05;100776.13;5356003;32;35519;-66
2023/03/16 06:55:53;;;;;;;;;;;;;;;10.40;31.89;100787.56;5369553;32;35914;-66
2023/03/16 06:58:55;;;;;;;;;;;;;;;11.33;29.90;100785.25;5351142;32;36298;-74
2023/03/16 07:01:58;;;;;;;;;;;;;;;13.11;27.44;100776.47;5379314;32;34806;-66
2023/03/16 07:05:00;;;;;;;;;;;;;;;11.95;28.99;100798.81;5337135;32;34910;-75
2023/03/16 07:08:03;;;;;;;;;;;;;;;11.81;29.32;100801.97;5367744;32;34681;-65
2023/03/16 07:11:06;;;;;;;;;;;;;;;13.34;26.83;100791.34;5354029;32;36265;-75
2023/03/16 07:14:07;;;;;;;;;;;;;;;12.13;28.68;100806.87;5358418;32;35346;-66
2023/03/16 07:17:10;;;;;;;;;;;;;;;10.71;29.92;100806.69;5367697;32;44725;-67
2023/03/16 07:20:12;;;;;;;;;;;;;;;10.90;29.96;100816.59;5364291;32;35671;-75
2023/03/16 07:23:14;;;;;;;;;;;;;;;11.92;28.77;100819.09;5364508;32;35289;-67
2023/03/16 07:26:16;;;;;;;;;;;;;;;11.08;29.98;100823.87;5349387;32;35400;-73
2023/03/16 07:29:18;;;;;;;;;;;;;;;12.84;27.62;100815.44;5370442;32;34914;-67
2023/03/16 07:32:20;;;;;;;;;;;;;;;12.45;27.52;100831.09;5358865;32;36323;-71
2023/03/16 07:35:23;;;;;;;;;;;;;;;11.00;29.91;100813.59;5377383;32;36268;-65
2023/03/16 07:38:25;;;;;;;;;;;;;;;12.16;28.43;100834.88;5351018;32;36302;-73
2023/03/16 07:41:27;;;;;;;;;;;;;;;13.09;26.44;100830.25;5353659;32;35891;-73
2023/03/16 07:44:29;;;;;;;;;;;;;;;11.80;28.04;100831.81;5376892;32;34808;-73
2023/03/16 07:47:33;;;;;;;;;;;;;;;10.51;30.19;100828.38;5350641;32;34947;-69
2023/03/16 07:50:35;;;;;;;;;;;;;;;11.82;27.99;100822.97;5391649;32;34534;-69
2023/03/16 07:53:37;;;;;;;;;;;;;;;11.79;28.71;100841.50;5354905;32;36721;-64
2023/03/16 07:56:40;;;;;;;;;;;;;;;11.46;29.05;100832.16;5342295;32;43504;-67
2023/03/16 07:59:50;;;;;;;;;;;;;;;13.24;26.44;100824.34;5368911;32;36047;-70
2023/03/16 08:02:54;;;;;;;;;;;;;;;12.68;27.37;100838.06;5365140;32;36072;-64
2023/03/16 08:05:56;;;;;;;;;;;;;;;10.99;29.83;100850.47;5341986;32;35524;-70
2023/03/16 08:08:59;;;;;;;;;;;;;;;10.91;30.32;100844.59;5373241;32;35612;-71
2023/03/16 08:12:04;;;;;;;;;;;;;;;10.06;31.29;100840.25;5363647;32;34813;-69
2023/03/16 08:15:06;;;;;;;;;;;;;;;10.08;31.83;100841.91;5363368;32;36263;-62
2023/03/16 08:18:11;;;;;;;;;;;;;;;10.18;31.61;100853.87;5356419;32;45115;-67
2023/03/16 08:21:13;;;;;;;;;;;;;;;9.62;32.80;100860.75;5370211;32;34902;-66
2023/03/16 08:24:15;;;;;;;;;;;;;;;9.40;33.39;100876.19;5364734;32;37029;-65
2023/03/16 08:27:18;;;;;;;;;;;;;;;8.54;34.85;100870.47;5371690;32;36519;-72
2023/03/16 08:30:21;;;;;;;;;;;;;;;9.35;33.78;100875.50;5342831;32;34620;-73
2023/03/16 08:33:24;;;;;;;;;;;;;;;8.36;35.67;100876.12;5355197;32;36788;-73
2023/03/16 08:36:27;;;;;;;;;;;;;;;8.26;35.53;100866.72;5357833;32;35966;-72
2023/03/16 08:39:32;;;;;;;;;;;;;;;8.52;35.95;100874.03;5357537;32;36926;-70
2023/03/16 08:42:34;;;;;;;;;;;;;;;8.07;36.03;100882.81;5368757;32;36358;-71
2023/03/16 08:45:36;;;;;;;;;;;;;;;9.23;33.24;100859.16;5361194;32;37064;-71
2023/03/16 08:48:40;;;;;;;;;;;;;;;8.52;33.87;100867.03;5367896;32;37832;-73
2023/03/16 08:51:42;;;;;;;;;;;;;;;9.19;32.67;100873.25;5350651;32;36119;-67
2023/03/16 08:54:45;;;;;;;;;;;;;;;8.40;34.14;100869.94;5368949;32;34894;-69
2023/03/16 08:58:03;;;;;;;;;;;;;;;8.61;33.22;100868.56;5361066;32;34825;-67
2023/03/16 09:01:05;;;;;;;;;;;;;;;7.62;35.20;100878.50;5357748;32;36983;-65
2023/03/16 09:04:07;;;;;;;;;;;;;;;8.36;33.97;100881.34;5353016;32;35620;-66
2023/03/16 09:07:10;;;;;;;;;;;;;;;7.83;34.89;100878.09;5342115;32;44229;-64
2023/03/16 09:10:14;;;;;;;;;;;;;;;7.75;34.33;100886.09;5375120;32;34910;-63
2023/03/16 09:13:18;;;;;;;;;;;;;;;7.42;34.84;100886.72;5366569;32;35387;-68
2023/03/16 09:16:24;;;;;;;;;;;;;;;8.14;34.31;100894.87;5363727;32;34637;-62
2023/03/16 09:19:26;;;;;;;;;;;;;;;8.80;33.50;100896.06;5370343;32;34734;-65
2023/03/16 09:22:39;;;;;;;;;;;;;;;8.68;33.48;100901.59;5364778;32;44332;-72
2023/03/16 09:25:41;;;;;;;;;;;;;;;8.41;33.86;100901.31;5353383;32;34812;-72
2023/03/16 09:28:43;;;;;;;;;;;;;;;8.30;34.54;100902.41;5355352;32;34600;-68
2023/03/16 09:31:46;;;;;;;;;;;;;;;8.52;34.07;100877.50;5366599;32;34792;-69
2023/03/16 09:34:48;;;;;;;;;;;;;;;8.48;33.86;100894.19;5344103;32;34803;-66
2023/03/16 09:37:51;;;;;;;;;;;;;;;8.29;34.01;100898.06;5354677;32;35017;-64
2023/03/16 09:41:08;;;;;;;;;;;;;;;8.82;34.05;100888.16;5371542;32;34666;-72
2023/03/16 09:44:21;;;;;;;;;;;;;;;10.33;31.45;100891.13;5353207;32;44486;-72
2023/03/16 09:47:27;;;;;;;;;;;;;;;11.73;28.87;100870.69;5374596;32;35005;-67
2023/03/16 09:50:34;;;;;;;;;;;;;;;14.39;25.24;100870.19;5348783;32;34930;-71
2023/03/16 09:53:51;;;;;;;;;;;;;;;14.52;24.64;100873.16;5334197;32;35328;-70
2023/03/16 09:56:53;;;;;;;;;;;;;;;15.35;23.52;100878.72;5360290;32;36976;-65
2023/03/16 09:59:57;;;;;;;;;;;;;;;16.98;21.50;100865.47;5345067;32;34630;-64
2023/03/16 10:03:02;;;;;;;;;;;;;;;15.76;21.85;100866.94;5369604;32;34589;-69
2023/03/16 10:06:05;;;;;;;;;;;;;;;14.88;23.27;100887.25;5343494;32;36123;-65
2023/03/16 10:09:27;;;;;;;;;;;;;;;16.93;20.49;100889.62;5345994;32;36032;-73
2023/03/16 10:12:30;;;;;;;;;;;;;;;15.98;20.61;100886.06;5357512;32;36268;-79
2023/03/16 10:15:33;;;;;;;;;;;;;;;16.41;20.97;100886.38;5348917;32;36205;-64
2023/03/16 10:18:40;;;;;;;;;;;;;;;19.29;17.61;100878.44;5378756;32;36139;-64
2023/03/16 10:21:42;;;;;;;;;;;;;;;18.50;18.29;100881.84;5348475;32;44764;-69
2023/03/16 10:25:03;;;;;;;;;;;;;;;19.25;17.38;100884.91;5373771;32;34736;-72
2023/03/16 10:28:09;;;;;;;;;;;;;;;17.10;18.99;100891.31;5367075;32;36063;-67
2023/03/16 10:31:12;;;;;;;;;;;;;;;16.41;20.05;100896.97;5353351;32;44393;-69
2023/03/16 10:34:14;;;;;;;;;;;;;;;15.14;21.14;100885.97;5370557;32;34725;-65
2023/03/16 10:37:17;;;;;;;;;;;;;;;17.73;18.68;100879.62;5354210;32;33668;-70
2023/03/16 10:40:19;;;;;;;;;;;;;;;16.77;19.13;100875.53;5380102;32;34844;-73
2023/03/16 10:43:21;;;;;;;;;;;;;;;16.64;19.51;100891.25;5351388;32;34829;-72
2023/03/16 10:46:25;;;;;;;;;;;;;;;15.17;20.79;100888.44;5353087;32;35358;-69
2023/03/16 10:49:38;;;;;;;;;;;;;;;15.42;20.26;100868.66;5386642;32;34796;-70
2023/03/16 10:52:42;;;;;;;;;;;;;;;14.56;20.32;100880.87;5352531;32;44892;-68
2023/03/16 10:55:44;;;;;;;;;;;;;;;14.42;21.02;100893.84;5371951;32;34680;-64
2023/03/16 10:58:47;;;;;;;;;;;;;;;14.80;21.18;100892.03;5366154;32;36058;-71
2023/03/16 11:01:50;;;;;;;;;;;;;;;16.08;20.17;100881.97;5370369;32;34759;-62
2023/03/16 11:04:53;;;;;;;;;;;;;;;17.44;18.59;100857.44;5341638;32;34801;-67
2023/03/16 11:08:11;;;;;;;;;;;;;;;15.99;19.91;100863.91;5363699;32;35807;-66
2023/03/16 11:11:17;;;;;;;;;;;;;;;16.33;19.59;100877.97;5387493;32;46698;-69
2023/03/16 11:14:21;;;;;;;;;;;;;;;15.89;19.44;100858.25;5354249;32;32367;-66
2023/03/16 11:17:31;;;;;;;;;;;;;;;17.26;19.18;100857.59;5365489;32;34823;-68
2023/03/16 11:20:33;;;;;;;;;;;;;;;17.13;18.83;100861.94;5370630;32;35995;-70
2023/03/16 11:23:36;;;;;;;;;;;;;;;16.89;18.83;100868.66;5345959;32;34657;-66
2023/03/16 11:26:39;;;;;;;;;;;;;;;14.86;20.59;100869.72;5371568;32;43709;-74
2023/03/16 11:29:51;;;;;;;;;;;;;;;14.13;21.57;100860.84;5352910;32;34877;-70
2023/03/16 11:32:53;;;;;;;;;;;;;;;14.13;21.90;100874.06;5388912;32;35133;-70
2023/03/16 11:36:00;;;;;;;;;;;;;;;15.69;20.02;100854.00;5347661;32;35867;-63
2023/03/16 11:39:04;;;;;;;;;;;;;;;16.40;19.13;100864.28;5335116;32;36303;-64
2023/03/16 11:42:19;;;;;;;;;;;;;;;18.16;17.08;100845.88;5375478;32;44651;-62
2023/03/16 11:45:29;;;;;;;;;;;;;;;16.05;18.48;100866.25;5363086;32;34755;-67
2023/03/16 11:48:35;;;;;;;;;;;;;;;15.57;18.78;100851.97;5370563;32;36033;-69
2023/03/16 11:51:37;;;;;;;;;;;;;;;16.41;18.30;100851.88;5364487;32;33873;-71
2023/03/16 11:54:48;;;;;;;;;;;;;;;15.93;18.06;100853.66;5379805;32;44600;-67
2023/03/16 11:58:01;;;;;;;;;;;;;;;16.27;18.17;100847.34;5364404;32;34952;-72
2023/03/16 12:01:26;;;;;;;;;;;;;;;14.65;19.28;100857.56;5358681;32;34532;-71
2023/03/16 12:04:47;;;;;;;;;;;;;;;16.07;18.31;100850.25;5355653;32;34987;-70
2023/03/16 12:07:49;;;;;;;;;;;;;;;18.67;15.52;100839.03;5350776;32;34957;-68
2023/03/16 12:11:11;;;;;;;;;;;;;;;18.44;14.68;100833.50;5372245;32;34940;-67
2023/03/16 12:14:19;;;;;;;;;;;;;;;18.05;15.21;100832.44;5366407;32;44616;-71
2023/03/16 12:17:25;;;;;;;;;;;;;;;18.78;14.38;100833.00;5374909;32;36502;-78
2023/03/16 12:20:30;;;;;;;;;;;;;;;17.74;14.56;100833.50;5371804;32;35967;-72
2023/03/16 12:23:34;;;;;;;;;;;;;;;19.56;12.92;100819.69;5365985;32;37502;-64
2023/03/16 12:26:38;;;;;;;;;;;;;;;18.14;13.84;100827.37;5357822;32;34542;-71
2023/03/16 12:29:45;;;;;;;;;;;;;;;15.91;15.15;100834.34;5363758;32;44804;-73
2023/03/16 12:32:54;;;;;;;;;;;;;;;16.68;14.59;100831.75;5371861;32;36436;-64
2023/03/16 12:36:03;;;;;;;;;;;;;;;15.72;14.69;100833.59;5353367;32;38090;-69
2023/03/16 12:39:17;;;;;;;;;;;;;;;15.95;14.42;100834.06;5344663;32;36340;-64
2023/03/16 12:42:25;;;;;;;;;;;;;;;16.07;14.34;100832.53;5361002;32;34962;-65
2023/03/16 12:45:31;;;;;;;;;;;;;;;20.74;11.42;100803.25;5358658;32;37045;-72
2023/03/16 12:48:37;;;;;;;;;;;;;;;24.15;9.27;100804.69;5352142;32;34928;-75
2023/03/16 12:51:41;;;;;;;;;;;;;;;20.70;10.46;100817.78;5393232;32;44702;-69
2023/03/16 12:55:05;;;;;;;;;;;;;;;19.92;11.12;100802.97;5352035;32;34958;-69
2023/03/16 12:58:07;;;;;;;;;;;;;;;19.60;12.35;100818.56;5375245;32;35720;-66
2023/03/16 13:01:10;;;;;;;;;;;;;;;17.63;14.14;100820.81;5352314;32;46408;-70
2023/03/16 13:04:12;;;;;;;;;;;;;;;16.87;13.65;100814.78;5348284;32;36227;-72
2023/03/16 13:07:24;;;;;;;;;;;;;;;18.37;12.09;100820.59;5343649;32;36626;-63
2023/03/16 13:10:27;;;;;;;;;;;;;;;16.89;12.70;100828.84;5355009;32;34655;-61
2023/03/16 13:13:30;;;;;;;;;;;;;;;19.12;11.78;100815.63;5367073;32;34608;-61
2023/03/16 13:16:32;;;;;;;;;;;;;;;17.53;12.31;100822.34;5377136;32;35246;-71
2023/03/16 13:19:36;;;;;;;;;;;;;;;17.85;12.29;100821.25;5376129;32;36062;-65
2023/03/16 13:22:44;;;;;;;;;;;;;;;17.04;13.29;100827.94;5365820;32;44689;-68
2023/03/16 13:26:03;;;;;;;;;;;;;;;16.82;12.74;100822.19;5365793;32;35513;-70
2023/03/16 13:29:09;;;;;;;;;;;;;;;16.02;13.26;100825.78;5393712;32;34764;-69
2023/03/16 13:32:14;;;;;;;;;;;;;;;19.23;11.39;100817.56;5367168;32;43446;-64
2023/03/16 13:35:16;;;;;;;;;;;;;;;19.01;11.50;100822.66;5367885;32;36046;-64
2023/03/16 13:38:20;;;;;;;;;;;;;;;22.91;8.88;100812.75;5343884;32;35422;-60
2023/03/16 13:41:22;;;;;;;;;;;;;;;24.84;7.83;100797.47;5346317;32;36267;-67
2023/03/16 13:44:27;;;;;;;;;;;;;;;23.03;8.82;100811.72;5358208;32;34768;-64
2023/03/16 13:47:29;;;;;;;;;;;;;;;18.57;10.57;100818.44;5371656;32;35060;-71
2023/03/16 13:50:31;;;;;;;;;;;;;;;18.29;11.09;100796.28;5357790;32;34923;-67
2023/03/16 13:53:34;;;;;;;;;;;;;;;17.11;12.01;100817.81;5353429;32;37348;-78
2023/03/16 13:56:38;;;;;;;;;;;;;;;14.18;14.35;100831.56;5353334;32;36249;-75
2023/03/16 13:59:42;;;;;;;;;;;;;;;13.24;15.54;100835.75;5361774;32;43507;-71
2023/03/16 14:02:45;;;;;;;;;;;;;;;13.47;15.54;100826.84;5336964;32;36241;-66
2023/03/16 14:05:47;;;;;;;;;;;;;;;13.92;14.61;100823.06;5330738;32;36198;-63
2023/03/16 14:08:50;;;;;;;;;;;;;;;12.40;16.60;100841.81;5356367;32;34656;-63
2023/03/16 14:11:53;;;;;;;;;;;;;;;12.48;16.65;100838.88;5353982;32;36646;-72
2023/03/16 14:14:55;;;;;;;;;;;;;;;12.93;15.99;100830.88;5340353;32;34711;-70
2023/03/16 14:18:07;;;;;;;;;;;;;;;13.20;15.81;100835.91;5364736;32;34675;-66
2023/03/16 14:21:12;;;;;;;;;;;;;;;12.83;16.27;100834.84;5376191;32;46173;-78
2023/03/16 14:24:19;;;;;;;;;;;;;;;12.97;16.12;100836.87;5340798;32;33363;-62
2023/03/16 14:27:21;;;;;;;;;;;;;;;13.29;16.02;100843.47;5372692;32;36522;-71
2023/03/16 14:30:25;;;;;;;;;;;;;;;12.72;16.12;100843.16;5358340;32;35390;-65
2023/03/16 14:33:29;;;;;;;;;;;;;;;12.92;15.28;100841.50;5378632;32;36595;-73
2023/03/16 14:36:35;;;;;;;;;;;;;;;11.51;15.02;100846.03;5349098;32;34741;-76
2023/03/16 14:39:39;;;;;;;;;;;;;;;11.43;14.76;100850.72;5357143;32;36786;-73
2023/03/16 14:42:41;;;;;;;;;;;;;;;11.30;14.47;100845.03;5353138;32;44614;-66
2023/03/16 14:45:43;;;;;;;;;;;;;;;11.55;14.29;100845.03;5349252;32;34737;-64
2023/03/16 14:48:49;;;;;;;;;;;;;;;12.22;13.79;100847.81;5367546;32;35950;-70
2023/03/16 14:51:51;;;;;;;;;;;;;;;12.22;14.77;100847.81;5368206;32;36152;-68
2023/03/16 14:54:54;;;;;;;;;;;;;;;12.20;15.70;100857.56;5360410;32;36081;-74
2023/03/16 14:57:56;;;;;;;;;;;;;;;11.71;17.03;100866.38;5348026;32;36483;-70
2023/03/16 15:01:00;;;;;;;;;;;;;;;11.80;17.22;100863.44;5338851;32;35355;-71
2023/03/16 15:04:02;;;;;;;;;;;;;;;12.20;16.40;100868.09;5341347;32;36029;-64
2023/03/16 15:07:07;;;;;;;;;;;;;;;11.34;17.46;100868.56;5348603;32;34608;-62
2023/03/16 15:10:12;;;;;;;;;;;;;;;11.88;17.00;100864.03;5351434;32;46334;-62
2023/03/16 15:13:33;;;;;;;;;;;;;;;12.30;16.33;100860.69;5347639;32;34682;-80
2023/03/16 15:16:35;;;;;;;;;;;;;;;11.85;15.97;100859.75;5344181;32;34792;-62
2023/03/16 15:19:37;;;;;;;;;;;;;;;13.02;15.45;100856.03;5356329;32;34805;-61
2023/03/16 15:22:39;;;;;;;;;;;;;;;12.54;15.53;100859.72;5342556;32;44609;-62
2023/03/16 15:25:44;;;;;;;;;;;;;;;12.18;15.19;100867.31;5360739;32;36875;-79
2023/03/16 15:28:46;;;;;;;;;;;;;;;11.99;15.45;100871.56;5344180;32;36084;-62
2023/03/16 15:31:48;;;;;;;;;;;;;;;11.28;16.13;100874.03;5364277;32;36058;-79
2023/03/16 15:34:51;;;;;;;;;;;;;;;11.89;15.83;100863.13;5342938;32;34784;-62
2023/03/16 15:37:53;;;;;;;;;;;;;;;11.48;16.05;100873.34;5355993;32;35435;-79
2023/03/16 15:40:55;;;;;;;;;;;;;;;11.98;15.74;100883.88;5357321;32;35372;-80
2023/03/16 15:43:59;;;;;;;;;;;;;;;11.41;16.18;100874.47;5357034;32;34824;-63
2023/03/16 15:47:01;;;;;;;;;;;;;;;11.27;16.32;100893.38;5355354;32;35086;-81
2023/03/16 15:50:04;;;;;;;;;;;;;;;11.49;15.87;100896.09;5351655;32;35294;-62
2023/03/16 15:53:15;;;;;;;;;;;;;;;11.19;15.74;100902.41;5367532;32;34867;-61